Terminal Aerodrome Forecast
Issued by NWS

Home | Current Version | Previous Version | Graphics & Text | Print | Product List | Glossary On
Versions: 1 2 3 4 5 6 7 8 9 10 11 12 13 14 15 16 17
491
FTUS43 KMPX 222336
TAFAXN
TAF
KAXN 222336Z 2300/2324 35012KT P6SM VCSH OVC008
     FM230400 36011KT P6SM OVC012
     FM230600 36009KT P6SM OVC020
     FM231500 05009KT P6SM OVC035=

USA.gov is the U.S. government's official web portal to all federal, state and local government web resources and services.